sensor_id;sensor_type;location;lat;lon;timestamp;P1;durP1;ratioP1;P2;durP2;ratioP2
53309;SDS011;39197;53.200;5.792;2022-09-27T00:00:59;22.70;;;10.88;;
53309;SDS011;39197;53.200;5.792;2022-09-27T00:03:26;29.80;;;15.95;;
53309;SDS011;39197;53.200;5.792;2022-09-27T00:06:14;16.08;;;5.10;;
53309;SDS011;39197;53.200;5.792;2022-09-27T00:08:41;11.88;;;2.90;;
53309;SDS011;39197;53.200;5.792;2022-09-27T00:11:09;9.98;;;1.15;;
53309;SDS011;39197;53.200;5.792;2022-09-27T00:13:41;17.48;;;6.50;;
53309;SDS011;39197;53.200;5.792;2022-09-27T00:16:08;10.73;;;3.08;;
53309;SDS011;39197;53.200;5.792;2022-09-27T00:18:34;11.57;;;3.20;;
53309;SDS011;39197;53.200;5.792;2022-09-27T00:21:03;8.02;;;1.90;;
53309;SDS011;39197;53.200;5.792;2022-09-27T00:23:33;8.25;;;2.50;;
53309;SDS011;39197;53.200;5.792;2022-09-27T00:25:59;4.20;;;0.80;;
53309;SDS011;39197;53.200;5.792;2022-09-27T00:28:25;6.25;;;1.10;;
53309;SDS011;39197;53.200;5.792;2022-09-27T00:30:51;12.10;;;3.85;;
53309;SDS011;39197;53.200;5.792;2022-09-27T00:33:18;10.23;;;3.35;;
53309;SDS011;39197;53.200;5.792;2022-09-27T00:35:44;5.45;;;2.10;;
53309;SDS011;39197;53.200;5.792;2022-09-27T00:38:09;7.90;;;1.75;;
53309;SDS011;39197;53.200;5.792;2022-09-27T00:40:36;7.20;;;1.73;;
53309;SDS011;39197;53.200;5.792;2022-09-27T00:43:01;8.18;;;1.90;;
53309;SDS011;39197;53.200;5.792;2022-09-27T00:45:27;5.45;;;0.95;;
53309;SDS011;39197;53.200;5.792;2022-09-27T00:47:59;13.90;;;4.93;;
53309;SDS011;39197;53.200;5.792;2022-09-27T00:50:31;13.35;;;4.47;;
53309;SDS011;39197;53.200;5.792;2022-09-27T00:55:52;16.85;;;6.20;;
53309;SDS011;39197;53.200;5.792;2022-09-27T00:58:21;15.25;;;6.07;;
53309;SDS011;39197;53.200;5.792;2022-09-27T01:00:55;10.10;;;2.45;;
53309;SDS011;39197;53.200;5.792;2022-09-27T01:05:57;24.40;;;7.80;;
53309;SDS011;39197;53.200;5.792;2022-09-27T01:08:23;14.50;;;4.05;;
53309;SDS011;39197;53.200;5.792;2022-09-27T01:10:55;13.27;;;4.00;;
53309;SDS011;39197;53.200;5.792;2022-09-27T01:13:57;15.02;;;4.57;;
53309;SDS011;39197;53.200;5.792;2022-09-27T01:16:38;19.33;;;6.07;;
53309;SDS011;39197;53.200;5.792;2022-09-27T01:19:09;21.45;;;7.90;;
53309;SDS011;39197;53.200;5.792;2022-09-27T01:22:02;15.25;;;4.10;;
53309;SDS011;39197;53.200;5.792;2022-09-27T01:32:54;13.38;;;2.35;;
53309;SDS011;39197;53.200;5.792;2022-09-27T01:35:38;5.43;;;1.25;;
53309;SDS011;39197;53.200;5.792;2022-09-27T01:41:07;4.90;;;0.93;;
53309;SDS011;39197;53.200;5.792;2022-09-27T01:43:59;9.05;;;1.45;;
53309;SDS011;39197;53.200;5.792;2022-09-27T01:46:45;7.97;;;0.80;;
53309;SDS011;39197;53.200;5.792;2022-09-27T01:49:17;11.10;;;1.33;;
53309;SDS011;39197;53.200;5.792;2022-09-27T01:52:17;7.35;;;0.60;;
53309;SDS011;39197;53.200;5.792;2022-09-27T01:54:47;6.97;;;1.77;;
53309;SDS011;39197;53.200;5.792;2022-09-27T01:57:18;12.85;;;0.90;;
53309;SDS011;39197;53.200;5.792;2022-09-27T02:00:01;9.80;;;0.80;;
53309;SDS011;39197;53.200;5.792;2022-09-27T02:02:31;8.23;;;0.80;;
53309;SDS011;39197;53.200;5.792;2022-09-27T02:05:00;5.47;;;0.40;;
53309;SDS011;39197;53.200;5.792;2022-09-27T02:07:31;4.03;;;0.40;;
53309;SDS011;39197;53.200;5.792;2022-09-27T02:10:08;7.85;;;0.40;;
53309;SDS011;39197;53.200;5.792;2022-09-27T02:12:45;4.07;;;0.50;;
53309;SDS011;39197;53.200;5.792;2022-09-27T02:15:21;3.35;;;0.25;;
53309;SDS011;39197;53.200;5.792;2022-09-27T02:17:55;3.17;;;0.20;;
53309;SDS011;39197;53.200;5.792;2022-09-27T02:28:25;4.28;;;0.40;;
53309;SDS011;39197;53.200;5.792;2022-09-27T02:30:57;1.90;;;0.13;;
53309;SDS011;39197;53.200;5.792;2022-09-27T02:33:25;3.20;;;0.20;;
53309;SDS011;39197;53.200;5.792;2022-09-27T02:36:00;7.85;;;0.85;;
53309;SDS011;39197;53.200;5.792;2022-09-27T02:38:26;5.80;;;0.30;;
53309;SDS011;39197;53.200;5.792;2022-09-27T02:40:53;6.30;;;0.73;;
53309;SDS011;39197;53.200;5.792;2022-09-27T02:43:19;4.18;;;0.60;;
53309;SDS011;39197;53.200;5.792;2022-09-27T02:48:30;7.70;;;0.40;;
53309;SDS011;39197;53.200;5.792;2022-09-27T02:51:23;4.63;;;0.40;;
53309;SDS011;39197;53.200;5.792;2022-09-27T02:54:20;3.58;;;0.20;;
53309;SDS011;39197;53.200;5.792;2022-09-27T02:59:51;2.58;;;0.40;;
53309;SDS011;39197;53.200;5.792;2022-09-27T03:02:33;1.92;;;0.10;;
53309;SDS011;39197;53.200;5.792;2022-09-27T03:05:32;4.45;;;0.30;;
53309;SDS011;39197;53.200;5.792;2022-09-27T03:08:07;2.22;;;0.10;;
53309;SDS011;39197;53.200;5.792;2022-09-27T03:10:34;2.53;;;0.60;;
53309;SDS011;39197;53.200;5.792;2022-09-27T03:13:00;3.15;;;0.50;;
53309;SDS011;39197;53.200;5.792;2022-09-27T03:15:25;3.60;;;0.10;;
53309;SDS011;39197;53.200;5.792;2022-09-27T03:17:51;4.18;;;0.15;;
53309;SDS011;39197;53.200;5.792;2022-09-27T03:20:17;6.78;;;0.20;;
53309;SDS011;39197;53.200;5.792;2022-09-27T03:22:43;5.18;;;0.10;;
53309;SDS011;39197;53.200;5.792;2022-09-27T03:25:08;4.53;;;0.20;;
53309;SDS011;39197;53.200;5.792;2022-09-27T03:27:34;6.05;;;0.40;;
53309;SDS011;39197;53.200;5.792;2022-09-27T03:29:59;2.72;;;0.20;;
53309;SDS011;39197;53.200;5.792;2022-09-27T03:32:25;11.25;;;0.38;;
53309;SDS011;39197;53.200;5.792;2022-09-27T03:34:51;4.57;;;0.57;;
53309;SDS011;39197;53.200;5.792;2022-09-27T03:37:19;8.23;;;0.28;;
53309;SDS011;39197;53.200;5.792;2022-09-27T03:39:45;7.57;;;0.30;;
53309;SDS011;39197;53.200;5.792;2022-09-27T03:42:10;5.25;;;0.30;;
53309;SDS011;39197;53.200;5.792;2022-09-27T03:44:36;5.53;;;0.30;;
53309;SDS011;39197;53.200;5.792;2022-09-27T03:47:01;8.30;;;1.02;;
53309;SDS011;39197;53.200;5.792;2022-09-27T03:49:27;4.15;;;0.30;;
53309;SDS011;39197;53.200;5.792;2022-09-27T03:51:53;8.05;;;0.85;;
53309;SDS011;39197;53.200;5.792;2022-09-27T03:54:18;3.00;;;0.22;;
53309;SDS011;39197;53.200;5.792;2022-09-27T03:56:44;4.03;;;0.35;;
53309;SDS011;39197;53.200;5.792;2022-09-27T03:59:10;7.10;;;0.35;;
53309;SDS011;39197;53.200;5.792;2022-09-27T04:01:36;5.00;;;0.22;;
53309;SDS011;39197;53.200;5.792;2022-09-27T04:04:03;3.15;;;0.38;;
53309;SDS011;39197;53.200;5.792;2022-09-27T04:06:29;4.53;;;0.65;;
53309;SDS011;39197;53.200;5.792;2022-09-27T04:08:55;3.03;;;0.10;;
53309;SDS011;39197;53.200;5.792;2022-09-27T04:11:20;7.65;;;0.20;;
53309;SDS011;39197;53.200;5.792;2022-09-27T04:13:48;3.58;;;0.52;;
53309;SDS011;39197;53.200;5.792;2022-09-27T04:16:14;4.70;;;0.30;;
53309;SDS011;39197;53.200;5.792;2022-09-27T04:18:40;3.50;;;0.20;;
53309;SDS011;39197;53.200;5.792;2022-09-27T04:21:06;6.47;;;0.63;;
53309;SDS011;39197;53.200;5.792;2022-09-27T04:23:33;4.72;;;0.30;;
53309;SDS011;39197;53.200;5.792;2022-09-27T04:25:59;5.55;;;0.20;;
53309;SDS011;39197;53.200;5.792;2022-09-27T04:28:24;3.30;;;0.50;;
53309;SDS011;39197;53.200;5.792;2022-09-27T04:30:50;6.05;;;0.20;;
53309;SDS011;39197;53.200;5.792;2022-09-27T04:33:15;5.65;;;0.38;;
53309;SDS011;39197;53.200;5.792;2022-09-27T04:35:42;4.28;;;0.20;;
53309;SDS011;39197;53.200;5.792;2022-09-27T04:38:26;3.17;;;0.30;;
53309;SDS011;39197;53.200;5.792;2022-09-27T04:40:52;5.63;;;0.30;;
53309;SDS011;39197;53.200;5.792;2022-09-27T04:43:17;3.15;;;0.30;;
53309;SDS011;39197;53.200;5.792;2022-09-27T04:45:43;3.85;;;0.22;;
53309;SDS011;39197;53.200;5.792;2022-09-27T04:48:09;5.38;;;0.30;;
53309;SDS011;39197;53.200;5.792;2022-09-27T04:50:34;8.43;;;0.50;;
53309;SDS011;39197;53.200;5.792;2022-09-27T04:53:00;5.85;;;0.73;;
53309;SDS011;39197;53.200;5.792;2022-09-27T04:55:26;4.97;;;0.85;;
53309;SDS011;39197;53.200;5.792;2022-09-27T04:57:52;5.75;;;0.55;;
53309;SDS011;39197;53.200;5.792;2022-09-27T05:00:18;4.05;;;0.43;;
53309;SDS011;39197;53.200;5.792;2022-09-27T05:02:44;4.70;;;0.55;;
53309;SDS011;39197;53.200;5.792;2022-09-27T05:05:12;6.82;;;0.50;;
53309;SDS011;39197;53.200;5.792;2022-09-27T05:07:38;7.05;;;0.50;;
53309;SDS011;39197;53.200;5.792;2022-09-27T05:10:04;2.97;;;0.30;;
53309;SDS011;39197;53.200;5.792;2022-09-27T05:12:31;3.42;;;0.52;;
53309;SDS011;39197;53.200;5.792;2022-09-27T05:14:56;2.72;;;0.30;;
53309;SDS011;39197;53.200;5.792;2022-09-27T05:17:22;4.78;;;0.50;;
53309;SDS011;39197;53.200;5.792;2022-09-27T05:19:48;6.20;;;0.47;;
53309;SDS011;39197;53.200;5.792;2022-09-27T05:22:14;1.52;;;0.10;;
53309;SDS011;39197;53.200;5.792;2022-09-27T05:24:40;5.43;;;0.50;;
53309;SDS011;39197;53.200;5.792;2022-09-27T05:27:07;8.25;;;0.20;;
53309;SDS011;39197;53.200;5.792;2022-09-27T05:29:36;6.57;;;0.30;;
53309;SDS011;39197;53.200;5.792;2022-09-27T05:32:02;7.07;;;0.40;;
53309;SDS011;39197;53.200;5.792;2022-09-27T05:34:28;4.15;;;0.30;;
53309;SDS011;39197;53.200;5.792;2022-09-27T05:36:55;11.20;;;0.90;;
53309;SDS011;39197;53.200;5.792;2022-09-27T05:39:21;3.03;;;0.28;;
53309;SDS011;39197;53.200;5.792;2022-09-27T05:41:46;1.55;;;0.15;;
53309;SDS011;39197;53.200;5.792;2022-09-27T05:44:14;5.90;;;0.30;;
53309;SDS011;39197;53.200;5.792;2022-09-27T05:46:40;6.55;;;0.45;;
53309;SDS011;39197;53.200;5.792;2022-09-27T05:49:06;3.17;;;0.47;;
53309;SDS011;39197;53.200;5.792;2022-09-27T05:51:32;2.67;;;0.20;;
53309;SDS011;39197;53.200;5.792;2022-09-27T05:53:58;3.55;;;0.57;;
53309;SDS011;39197;53.200;5.792;2022-09-27T05:56:24;3.97;;;0.22;;
53309;SDS011;39197;53.200;5.792;2022-09-27T05:58:50;4.25;;;0.45;;
53309;SDS011;39197;53.200;5.792;2022-09-27T06:01:16;7.32;;;0.40;;
53309;SDS011;39197;53.200;5.792;2022-09-27T06:03:42;4.00;;;0.60;;
53309;SDS011;39197;53.200;5.792;2022-09-27T06:06:08;8.43;;;0.73;;
53309;SDS011;39197;53.200;5.792;2022-09-27T06:08:37;6.97;;;0.50;;
53309;SDS011;39197;53.200;5.792;2022-09-27T06:11:04;4.70;;;0.43;;
53309;SDS011;39197;53.200;5.792;2022-09-27T06:13:32;3.85;;;0.32;;
53309;SDS011;39197;53.200;5.792;2022-09-27T06:15:58;5.35;;;0.45;;
53309;SDS011;39197;53.200;5.792;2022-09-27T06:18:24;4.38;;;0.43;;
53309;SDS011;39197;53.200;5.792;2022-09-27T06:20:50;9.27;;;0.60;;
53309;SDS011;39197;53.200;5.792;2022-09-27T06:23:17;4.53;;;0.60;;
53309;SDS011;39197;53.200;5.792;2022-09-27T06:25:44;6.30;;;0.90;;
53309;SDS011;39197;53.200;5.792;2022-09-27T06:28:11;5.15;;;0.70;;
53309;SDS011;39197;53.200;5.792;2022-09-27T06:30:42;4.18;;;0.20;;
53309;SDS011;39197;53.200;5.792;2022-09-27T06:33:09;7.20;;;0.55;;
53309;SDS011;39197;53.200;5.792;2022-09-27T06:35:36;4.70;;;0.50;;
53309;SDS011;39197;53.200;5.792;2022-09-27T06:38:06;7.07;;;0.60;;
53309;SDS011;39197;53.200;5.792;2022-09-27T06:40:34;9.38;;;0.82;;
53309;SDS011;39197;53.200;5.792;2022-09-27T06:43:00;4.57;;;0.70;;
53309;SDS011;39197;53.200;5.792;2022-09-27T06:45:27;5.85;;;0.47;;
53309;SDS011;39197;53.200;5.792;2022-09-27T06:47:53;4.22;;;0.50;;
53309;SDS011;39197;53.200;5.792;2022-09-27T06:50:20;3.63;;;0.50;;
53309;SDS011;39197;53.200;5.792;2022-09-27T06:52:46;5.38;;;0.40;;
53309;SDS011;39197;53.200;5.792;2022-09-27T06:55:15;5.47;;;0.63;;
53309;SDS011;39197;53.200;5.792;2022-09-27T06:57:41;8.25;;;0.95;;
53309;SDS011;39197;53.200;5.792;2022-09-27T07:00:25;3.72;;;0.63;;
53309;SDS011;39197;53.200;5.792;2022-09-27T07:02:52;3.58;;;0.60;;
53309;SDS011;39197;53.200;5.792;2022-09-27T07:05:18;7.70;;;0.70;;
53309;SDS011;39197;53.200;5.792;2022-09-27T07:07:44;9.65;;;1.77;;
53309;SDS011;39197;53.200;5.792;2022-09-27T07:10:11;4.30;;;0.50;;
53309;SDS011;39197;53.200;5.792;2022-09-27T07:12:36;7.93;;;0.55;;
53309;SDS011;39197;53.200;5.792;2022-09-27T07:15:02;3.45;;;0.30;;
53309;SDS011;39197;53.200;5.792;2022-09-27T07:17:29;3.33;;;0.20;;
53309;SDS011;39197;53.200;5.792;2022-09-27T07:19:54;1.45;;;0.30;;
53309;SDS011;39197;53.200;5.792;2022-09-27T07:22:20;2.17;;;0.40;;
53309;SDS011;39197;53.200;5.792;2022-09-27T07:24:46;3.03;;;0.73;;
53309;SDS011;39197;53.200;5.792;2022-09-27T07:27:12;1.80;;;0.20;;
53309;SDS011;39197;53.200;5.792;2022-09-27T07:29:39;1.45;;;0.28;;
53309;SDS011;39197;53.200;5.792;2022-09-27T07:32:05;5.47;;;0.28;;
53309;SDS011;39197;53.200;5.792;2022-09-27T07:34:34;1.10;;;0.10;;
53309;SDS011;39197;53.200;5.792;2022-09-27T07:36:59;2.85;;;0.10;;
53309;SDS011;39197;53.200;5.792;2022-09-27T07:39:27;2.83;;;0.10;;
53309;SDS011;39197;53.200;5.792;2022-09-27T07:41:53;2.45;;;0.20;;
53309;SDS011;39197;53.200;5.792;2022-09-27T07:44:19;2.75;;;0.20;;
53309;SDS011;39197;53.200;5.792;2022-09-27T07:46:44;4.35;;;0.20;;
53309;SDS011;39197;53.200;5.792;2022-09-27T07:49:10;4.95;;;0.40;;
53309;SDS011;39197;53.200;5.792;2022-09-27T07:51:36;3.38;;;0.57;;
53309;SDS011;39197;53.200;5.792;2022-09-27T07:54:01;2.33;;;0.10;;
53309;SDS011;39197;53.200;5.792;2022-09-27T07:56:27;3.67;;;0.20;;
53309;SDS011;39197;53.200;5.792;2022-09-27T07:58:53;2.90;;;0.20;;
53309;SDS011;39197;53.200;5.792;2022-09-27T08:01:19;5.50;;;0.47;;
53309;SDS011;39197;53.200;5.792;2022-09-27T08:03:45;6.28;;;0.30;;
53309;SDS011;39197;53.200;5.792;2022-09-27T08:06:10;8.40;;;1.45;;
53309;SDS011;39197;53.200;5.792;2022-09-27T08:08:36;3.28;;;0.43;;
53309;SDS011;39197;53.200;5.792;2022-09-27T08:11:15;2.88;;;0.30;;
53309;SDS011;39197;53.200;5.792;2022-09-27T08:13:42;2.33;;;0.40;;
53309;SDS011;39197;53.200;5.792;2022-09-27T08:16:08;4.20;;;0.85;;
53309;SDS011;39197;53.200;5.792;2022-09-27T08:18:35;2.80;;;0.20;;
53309;SDS011;39197;53.200;5.792;2022-09-27T08:21:01;2.67;;;0.20;;
53309;SDS011;39197;53.200;5.792;2022-09-27T08:23:27;5.95;;;0.40;;
53309;SDS011;39197;53.200;5.792;2022-09-27T08:25:54;3.10;;;0.20;;
53309;SDS011;39197;53.200;5.792;2022-09-27T08:28:21;5.95;;;0.30;;
53309;SDS011;39197;53.200;5.792;2022-09-27T08:30:48;7.57;;;0.73;;
53309;SDS011;39197;53.200;5.792;2022-09-27T08:33:14;3.60;;;0.47;;
53309;SDS011;39197;53.200;5.792;2022-09-27T08:35:40;5.72;;;0.50;;
53309;SDS011;39197;53.200;5.792;2022-09-27T08:38:06;9.38;;;0.73;;
53309;SDS011;39197;53.200;5.792;2022-09-27T08:43:19;10.85;;;2.63;;
53309;SDS011;39197;53.200;5.792;2022-09-27T08:48:30;3.45;;;0.20;;
53309;SDS011;39197;53.200;5.792;2022-09-27T08:50:57;13.23;;;7.05;;
53309;SDS011;39197;53.200;5.792;2022-09-27T08:53:30;8.27;;;2.90;;
53309;SDS011;39197;53.200;5.792;2022-09-27T08:55:59;5.93;;;0.60;;
53309;SDS011;39197;53.200;5.792;2022-09-27T08:58:39;5.07;;;1.10;;
53309;SDS011;39197;53.200;5.792;2022-09-27T09:01:13;9.52;;;0.88;;
53309;SDS011;39197;53.200;5.792;2022-09-27T09:03:43;3.78;;;0.65;;
53309;SDS011;39197;53.200;5.792;2022-09-27T09:06:19;5.35;;;0.40;;
53309;SDS011;39197;53.200;5.792;2022-09-27T09:09:00;2.70;;;0.40;;
53309;SDS011;39197;53.200;5.792;2022-09-27T09:25:14;2.30;;;0.30;;
53309;SDS011;39197;53.200;5.792;2022-09-27T09:27:56;2.80;;;0.40;;
53309;SDS011;39197;53.200;5.792;2022-09-27T09:33:36;3.75;;;0.20;;
53309;SDS011;39197;53.200;5.792;2022-09-27T09:37:01;3.20;;;0.30;;
53309;SDS011;39197;53.200;5.792;2022-09-27T09:39:44;1.50;;;0.20;;
53309;SDS011;39197;53.200;5.792;2022-09-27T09:44:54;2.25;;;0.10;;
53309;SDS011;39197;53.200;5.792;2022-09-27T09:52:45;3.28;;;0.50;;
53309;SDS011;39197;53.200;5.792;2022-09-27T09:55:20;2.20;;;0.25;;
53309;SDS011;39197;53.200;5.792;2022-09-27T10:00:47;5.60;;;0.70;;
53309;SDS011;39197;53.200;5.792;2022-09-27T10:03:15;2.10;;;0.70;;
53309;SDS011;39197;53.200;5.792;2022-09-27T10:05:42;2.45;;;0.60;;
53309;SDS011;39197;53.200;5.792;2022-09-27T10:08:16;3.92;;;0.45;;
53309;SDS011;39197;53.200;5.792;2022-09-27T10:10:44;2.60;;;0.75;;
53309;SDS011;39197;53.200;5.792;2022-09-27T10:13:29;2.97;;;0.70;;
53309;SDS011;39197;53.200;5.792;2022-09-27T10:16:01;4.47;;;0.85;;
53309;SDS011;39197;53.200;5.792;2022-09-27T10:18:34;6.53;;;0.82;;
53309;SDS011;39197;53.200;5.792;2022-09-27T10:21:03;8.55;;;1.00;;
53309;SDS011;39197;53.200;5.792;2022-09-27T10:26:29;8.35;;;2.38;;
53309;SDS011;39197;53.200;5.792;2022-09-27T10:28:55;4.07;;;0.80;;
53309;SDS011;39197;53.200;5.792;2022-09-27T10:31:21;2.58;;;0.57;;
53309;SDS011;39197;53.200;5.792;2022-09-27T10:33:52;2.92;;;0.57;;
53309;SDS011;39197;53.200;5.792;2022-09-27T10:36:22;2.70;;;0.40;;
53309;SDS011;39197;53.200;5.792;2022-09-27T10:38:53;2.53;;;0.55;;
53309;SDS011;39197;53.200;5.792;2022-09-27T10:41:24;2.97;;;0.73;;
53309;SDS011;39197;53.200;5.792;2022-09-27T10:43:51;5.47;;;0.60;;
53309;SDS011;39197;53.200;5.792;2022-09-27T10:46:24;1.83;;;0.30;;
53309;SDS011;39197;53.200;5.792;2022-09-27T10:51:37;2.58;;;0.57;;
53309;SDS011;39197;53.200;5.792;2022-09-27T10:54:03;1.52;;;0.47;;
53309;SDS011;39197;53.200;5.792;2022-09-27T10:56:30;3.70;;;2.17;;
53309;SDS011;39197;53.200;5.792;2022-09-27T10:58:57;4.13;;;0.70;;
53309;SDS011;39197;53.200;5.792;2022-09-27T11:01:37;1.98;;;0.50;;
53309;SDS011;39197;53.200;5.792;2022-09-27T11:04:06;3.55;;;0.60;;
53309;SDS011;39197;53.200;5.792;2022-09-27T11:06:47;3.15;;;0.60;;
53309;SDS011;39197;53.200;5.792;2022-09-27T11:09:21;5.13;;;1.00;;
53309;SDS011;39197;53.200;5.792;2022-09-27T11:11:50;3.05;;;0.70;;
53309;SDS011;39197;53.200;5.792;2022-09-27T11:14:39;4.82;;;0.98;;
53309;SDS011;39197;53.200;5.792;2022-09-27T11:17:12;5.05;;;0.55;;
53309;SDS011;39197;53.200;5.792;2022-09-27T11:19:50;3.38;;;0.70;;
53309;SDS011;39197;53.200;5.792;2022-09-27T11:25:06;3.60;;;0.40;;
53309;SDS011;39197;53.200;5.792;2022-09-27T11:27:57;3.92;;;1.33;;
53309;SDS011;39197;53.200;5.792;2022-09-27T11:31:12;2.45;;;0.63;;
53309;SDS011;39197;53.200;5.792;2022-09-27T11:33:37;2.03;;;0.60;;
53309;SDS011;39197;53.200;5.792;2022-09-27T11:44:47;2.90;;;0.63;;
53309;SDS011;39197;53.200;5.792;2022-09-27T12:10:13;3.20;;;0.60;;
53309;SDS011;39197;53.200;5.792;2022-09-27T12:12:41;6.55;;;1.45;;
53309;SDS011;39197;53.200;5.792;2022-09-27T12:15:19;2.80;;;0.63;;
53309;SDS011;39197;53.200;5.792;2022-09-27T12:17:49;3.10;;;0.52;;
53309;SDS011;39197;53.200;5.792;2022-09-27T12:20:22;1.55;;;0.30;;
53309;SDS011;39197;53.200;5.792;2022-09-27T12:26:50;2.78;;;0.80;;
53309;SDS011;39197;53.200;5.792;2022-09-27T12:32:03;2.75;;;0.60;;
53309;SDS011;39197;53.200;5.792;2022-09-27T12:34:46;4.32;;;0.57;;
53309;SDS011;39197;53.200;5.792;2022-09-27T12:40:15;3.58;;;0.57;;
53309;SDS011;39197;53.200;5.792;2022-09-27T12:45:20;3.33;;;0.75;;
53309;SDS011;39197;53.200;5.792;2022-09-27T12:50:43;2.60;;;0.40;;
53309;SDS011;39197;53.200;5.792;2022-09-27T12:59:15;2.78;;;0.38;;
53309;SDS011;39197;53.200;5.792;2022-09-27T13:02:07;4.30;;;0.40;;
53309;SDS011;39197;53.200;5.792;2022-09-27T13:13:27;8.38;;;1.33;;
53309;SDS011;39197;53.200;5.792;2022-09-27T13:15:58;4.60;;;0.57;;
53309;SDS011;39197;53.200;5.792;2022-09-27T13:21:04;3.30;;;0.20;;
53309;SDS011;39197;53.200;5.792;2022-09-27T13:25:57;4.40;;;1.83;;
53309;SDS011;39197;53.200;5.792;2022-09-27T13:30:54;4.55;;;1.17;;
53309;SDS011;39197;53.200;5.792;2022-09-27T13:33:40;4.22;;;0.40;;
53309;SDS011;39197;53.200;5.792;2022-09-27T13:41:51;2.78;;;0.40;;
53309;SDS011;39197;53.200;5.792;2022-09-27T13:49:41;4.75;;;0.40;;
53309;SDS011;39197;53.200;5.792;2022-09-27T13:52:16;2.25;;;0.65;;
53309;SDS011;39197;53.200;5.792;2022-09-27T13:54:58;4.18;;;0.63;;
53309;SDS011;39197;53.200;5.792;2022-09-27T14:00:29;2.35;;;0.20;;
53309;SDS011;39197;53.200;5.792;2022-09-27T14:03:06;1.45;;;0.30;;
53309;SDS011;39197;53.200;5.792;2022-09-27T14:05:51;1.52;;;0.22;;
53309;SDS011;39197;53.200;5.792;2022-09-27T14:08:34;2.00;;;0.25;;
53309;SDS011;39197;53.200;5.792;2022-09-27T14:11:11;21.45;;;17.77;;
53309;SDS011;39197;53.200;5.792;2022-09-27T14:13:41;1.95;;;0.98;;
53309;SDS011;39197;53.200;5.792;2022-09-27T14:16:12;1.70;;;0.57;;
53309;SDS011;39197;53.200;5.792;2022-09-27T14:18:44;3.05;;;0.90;;
53309;SDS011;39197;53.200;5.792;2022-09-27T14:23:45;1.80;;;0.10;;
53309;SDS011;39197;53.200;5.792;2022-09-27T14:26:21;1.73;;;0.00;;
53309;SDS011;39197;53.200;5.792;2022-09-27T14:28:51;1.13;;;0.10;;
53309;SDS011;39197;53.200;5.792;2022-09-27T14:31:19;2.03;;;0.40;;
53309;SDS011;39197;53.200;5.792;2022-09-27T14:33:46;0.90;;;0.20;;
53309;SDS011;39197;53.200;5.792;2022-09-27T14:39:19;2.80;;;0.10;;
53309;SDS011;39197;53.200;5.792;2022-09-27T14:42:02;1.83;;;0.15;;
53309;SDS011;39197;53.200;5.792;2022-09-27T14:44:30;4.20;;;0.40;;
53309;SDS011;39197;53.200;5.792;2022-09-27T14:47:07;2.15;;;0.20;;
53309;SDS011;39197;53.200;5.792;2022-09-27T14:52:18;3.22;;;0.15;;
53309;SDS011;39197;53.200;5.792;2022-09-27T14:54:59;4.72;;;0.75;;
53309;SDS011;39197;53.200;5.792;2022-09-27T14:57:30;4.57;;;0.30;;
53309;SDS011;39197;53.200;5.792;2022-09-27T14:59:58;6.88;;;0.60;;
53309;SDS011;39197;53.200;5.792;2022-09-27T15:02:42;1.50;;;0.43;;
53309;SDS011;39197;53.200;5.792;2022-09-27T15:05:15;7.32;;;0.60;;
53309;SDS011;39197;53.200;5.792;2022-09-27T15:07:43;3.10;;;0.20;;
53309;SDS011;39197;53.200;5.792;2022-09-27T15:10:20;3.55;;;1.25;;
53309;SDS011;39197;53.200;5.792;2022-09-27T15:12:48;4.82;;;0.30;;
53309;SDS011;39197;53.200;5.792;2022-09-27T15:15:20;5.07;;;0.40;;
53309;SDS011;39197;53.200;5.792;2022-09-27T15:17:48;6.20;;;0.30;;
53309;SDS011;39197;53.200;5.792;2022-09-27T15:22:52;4.32;;;0.40;;
53309;SDS011;39197;53.200;5.792;2022-09-27T15:33:03;8.18;;;1.48;;
53309;SDS011;39197;53.200;5.792;2022-09-27T15:35:31;7.40;;;0.77;;
53309;SDS011;39197;53.200;5.792;2022-09-27T15:38:12;3.03;;;0.47;;
53309;SDS011;39197;53.200;5.792;2022-09-27T15:43:18;3.58;;;0.40;;
53309;SDS011;39197;53.200;5.792;2022-09-27T15:45:49;5.05;;;0.90;;
53309;SDS011;39197;53.200;5.792;2022-09-27T15:48:17;4.90;;;0.50;;
53309;SDS011;39197;53.200;5.792;2022-09-27T15:50:44;5.38;;;0.98;;
53309;SDS011;39197;53.200;5.792;2022-09-27T15:53:11;6.32;;;0.60;;
53309;SDS011;39197;53.200;5.792;2022-09-27T15:55:57;4.78;;;0.30;;
53309;SDS011;39197;53.200;5.792;2022-09-27T15:58:23;5.75;;;0.30;;
53309;SDS011;39197;53.200;5.792;2022-09-27T16:00:50;3.88;;;0.38;;
53309;SDS011;39197;53.200;5.792;2022-09-27T16:03:17;4.13;;;0.43;;
53309;SDS011;39197;53.200;5.792;2022-09-27T16:05:43;2.80;;;0.40;;
53309;SDS011;39197;53.200;5.792;2022-09-27T16:08:11;2.45;;;0.60;;
53309;SDS011;39197;53.200;5.792;2022-09-27T16:10:38;3.10;;;0.40;;
53309;SDS011;39197;53.200;5.792;2022-09-27T16:13:06;4.03;;;0.45;;
53309;SDS011;39197;53.200;5.792;2022-09-27T16:15:31;3.53;;;0.20;;
53309;SDS011;39197;53.200;5.792;2022-09-27T16:17:57;3.38;;;0.30;;
53309;SDS011;39197;53.200;5.792;2022-09-27T16:20:24;1.80;;;0.17;;
53309;SDS011;39197;53.200;5.792;2022-09-27T16:22:54;1.92;;;0.20;;
53309;SDS011;39197;53.200;5.792;2022-09-27T16:25:21;5.93;;;0.52;;
53309;SDS011;39197;53.200;5.792;2022-09-27T16:27:47;3.30;;;0.55;;
53309;SDS011;39197;53.200;5.792;2022-09-27T16:30:13;6.00;;;0.80;;
53309;SDS011;39197;53.200;5.792;2022-09-27T16:32:44;10.10;;;0.98;;
53309;SDS011;39197;53.200;5.792;2022-09-27T16:35:11;6.40;;;0.50;;
53309;SDS011;39197;53.200;5.792;2022-09-27T16:37:38;6.20;;;0.45;;
53309;SDS011;39197;53.200;5.792;2022-09-27T16:40:04;8.52;;;0.77;;
53309;SDS011;39197;53.200;5.792;2022-09-27T16:42:32;6.07;;;0.55;;
53309;SDS011;39197;53.200;5.792;2022-09-27T16:44:58;5.32;;;0.60;;
53309;SDS011;39197;53.200;5.792;2022-09-27T16:47:25;4.03;;;0.45;;
53309;SDS011;39197;53.200;5.792;2022-09-27T16:49:54;5.72;;;1.00;;
53309;SDS011;39197;53.200;5.792;2022-09-27T16:52:38;9.68;;;3.35;;
53309;SDS011;39197;53.200;5.792;2022-09-27T16:55:06;7.80;;;1.40;;
53309;SDS011;39197;53.200;5.792;2022-09-27T16:57:32;4.43;;;1.23;;
53309;SDS011;39197;53.200;5.792;2022-09-27T17:00:02;5.38;;;0.77;;
53309;SDS011;39197;53.200;5.792;2022-09-27T17:02:29;6.90;;;1.40;;
53309;SDS011;39197;53.200;5.792;2022-09-27T17:04:54;6.25;;;0.85;;
53309;SDS011;39197;53.200;5.792;2022-09-27T17:07:20;11.48;;;5.75;;
53309;SDS011;39197;53.200;5.792;2022-09-27T17:09:46;10.75;;;5.68;;
53309;SDS011;39197;53.200;5.792;2022-09-27T17:12:12;6.25;;;2.65;;
53309;SDS011;39197;53.200;5.792;2022-09-27T17:14:39;7.18;;;2.95;;
53309;SDS011;39197;53.200;5.792;2022-09-27T17:17:05;5.10;;;1.80;;
53309;SDS011;39197;53.200;5.792;2022-09-27T17:19:31;7.95;;;1.95;;
53309;SDS011;39197;53.200;5.792;2022-09-27T17:21:57;6.28;;;1.88;;
53309;SDS011;39197;53.200;5.792;2022-09-27T17:24:23;5.40;;;1.02;;
53309;SDS011;39197;53.200;5.792;2022-09-27T17:26:49;6.78;;;4.15;;
53309;SDS011;39197;53.200;5.792;2022-09-27T17:29:15;5.97;;;2.22;;
53309;SDS011;39197;53.200;5.792;2022-09-27T17:31:41;5.25;;;0.90;;
53309;SDS011;39197;53.200;5.792;2022-09-27T17:34:08;6.47;;;0.90;;
53309;SDS011;39197;53.200;5.792;2022-09-27T17:36:40;5.25;;;2.03;;
53309;SDS011;39197;53.200;5.792;2022-09-27T17:39:13;12.32;;;2.67;;
53309;SDS011;39197;53.200;5.792;2022-09-27T17:41:43;7.45;;;3.25;;
53309;SDS011;39197;53.200;5.792;2022-09-27T17:44:13;5.63;;;1.00;;
53309;SDS011;39197;53.200;5.792;2022-09-27T17:46:40;13.68;;;8.90;;
53309;SDS011;39197;53.200;5.792;2022-09-27T17:49:06;6.68;;;3.88;;
53309;SDS011;39197;53.200;5.792;2022-09-27T17:51:52;12.82;;;3.33;;
53309;SDS011;39197;53.200;5.792;2022-09-27T17:54:19;5.72;;;1.38;;
53309;SDS011;39197;53.200;5.792;2022-09-27T17:56:47;6.95;;;1.42;;
53309;SDS011;39197;53.200;5.792;2022-09-27T17:59:14;3.90;;;1.25;;